UHMD 210500Z 02010MPS 2500 -SN BLSN OVC006 M08/M11 Q0979 RMK QBB180 MT OBSC QFE734/0978
QNH:(hPa/inHg/mmHg)979 / 28.91 / 734
QFE:(hPa/inHg/mmHg)976 / 28.83 / 732
Temperature-8
Dew Point-11
Visibility2500
WeatherLight Snow;Blowing Snow
Cloud CoverOVC (600);
Transition Height1700 m./5700 ft.
Transition LevelFL80
SQUAWK